Flight Track Log - Related Links

Times and Time Zones

All times are in EDT time to prevent confusion due to time zone crossing. See the NKS940 flight status page for this flight to view local times or setup timezone preferences in your user account.

Time Position Orientation Groundspeed Altitude Reporting Facility
EDT Latitude Longitude Course Direction KTS MPH feet Rate Location/Type
Tue 07:33:03 AM 32.8621 -97.0295 178° South 160 184 2,800  Level FlightAware ADS-B
Tue 07:33:16 AM 32.8545 -97.0284 167° South 165 190 2,700 333 Descending FlightAware ADS-B
Tue 07:33:21 AM 32.8507 -97.0269 178° South 160 184 2,900 1,143 Climbing FlightAware ADS-B
Tue 07:33:37 AM 32.8369 -97.0193 155° Southeast 189 217 3,100 1,167 Climbing FlightAware ADS-B
Tue 07:33:57 AM 32.8189 -97.0102 158° South 212 244 3,600 1,650 Climbing FlightAware ADS-B
Tue 07:34:17 AM 32.8004 -97.0015 156° South 234 269 4,200 1,500 Climbing FlightAware ADS-B
Tue 07:34:29 AM 32.7909 -96.9948 144° Southeast 240 276 4,400 2,211 Climbing FlightAware ADS-B
Tue 07:34:36 AM 32.7832 -96.9846 124° Southeast 247 284 4,900 3,000 Climbing FlightAware ADS-B
Tue 07:34:45 AM 32.7792 -96.9750 112° Southeast 249 287 5,200 2,455 Climbing FlightAware ADS-B
Tue 07:34:58 AM 32.7782 -96.9574 85° East 251 289 5,800 2,857 Climbing FlightAware ADS-B
Tue 07:35:06 AM 32.7812 -96.9462 66° East 252 290 6,200 3,158 Climbing FlightAware ADS-B
Tue 07:35:17 AM 32.7892 -96.9340 44° Northeast 256 295 6,800 3,000 Climbing FlightAware ADS-B
Tue 07:35:26 AM 32.7985 -96.9273 26° Northeast 259 298 7,200 2,824 Climbing FlightAware ADS-B
Tue 07:35:34 AM 32.8047 -96.9248 11° North 267 307 7,600 2,182 Climbing FlightAware ADS-B
Tue 07:35:59 AM 32.8387 -96.9207 North 279 321 8,400 2,000 Climbing FlightAware ADS-B
Tue 07:36:07 AM 32.8471 -96.9205 360° North 281 323 8,700 3,176 Climbing FlightAware ADS-B
Tue 07:36:16 AM 32.8622 -96.9204 North 283 326 9,300 2,500 Climbing FlightAware ADS-B
Tue 07:36:19 AM 32.8610 -96.9204 360° North 283 326 9,200 4,667 Descending FlightAware ADS-B
Tue 07:36:25 AM 32.8747 -96.9203 North 285 328 10,000 2,595 Climbing FlightAware ADS-B
Tue 07:36:56 AM 32.9148 -96.9160 North 298 343 10,800 2,000 Climbing FlightAware ADS-B
Tue 07:37:04 AM 32.9220 -96.9146 10° North 317 365 11,300 1,171 Climbing FlightAware ADS-B
Tue 07:37:37 AM 32.9709 -96.9048 North 342 394 11,600 1,091 Climbing FlightAware ADS-B
Tue 07:38:10 AM 33.0281 -96.8947 North 359 413 12,500 2,057 Climbing FlightAware ADS-B
Tue 07:38:47 AM 33.0917 -96.8841 North 364 419 14,000 2,154 Climbing FlightAware ADS-B
Tue 07:39:28 AM 33.1610 -96.8724 North 376 433 15,300 1,902 Climbing FlightAware ADS-B
Tue 07:40:09 AM 33.2255 -96.8613 North 380 437 16,600 1,171 Climbing FlightAware ADS-B
Tue 07:40:50 AM 33.3056 -96.8477 North 383 441 16,900 923 Climbing FlightAware ADS-B
Tue 07:41:27 AM 33.3687 -96.8370 North 390 449 17,800 1,701 Climbing FlightAware ADS-B
Tue 07:41:57 AM 33.4239 -96.8276 North 395 455 18,800 1,959 Climbing FlightAware ADS-B
Tue 07:42:16 AM 33.4324 -96.8261 22° Northeast 392 451 19,400 1,811 Climbing FlightAware ADS-B
Tue 07:42:50 AM 33.5078 -96.7867 28° Northeast 391 450 20,400 1,612 Climbing FlightAware ADS-B
Tue 07:43:23 AM 33.5625 -96.7514 28° Northeast 397 457 21,200 1,455 Climbing FlightAware ADS-B
Tue 07:43:56 AM 33.5874 -96.7354 28° Northeast 406 467 22,000 1,364 Climbing FlightAware ADS-B
Tue 07:44:29 AM 33.6732 -96.6804 28° Northeast 408 470 22,700 1,390 Climbing FlightAware ADS-B
Tue 07:45:18 AM 33.7515 -96.6200 36° Northeast 413 475 23,900 1,465 Climbing FlightAware ADS-B
Tue 07:45:55 AM 33.8020 -96.5763 35° Northeast 416 479 24,800 1,317 Climbing FlightAware ADS-B
Tue 07:46:40 AM 33.8819 -96.5073 35° Northeast 421 484 25,700 1,244 Climbing FlightAware ADS-B
Tue 07:47:17 AM 33.9380 -96.4589 35° Northeast 424 488 26,500 1,183 Climbing FlightAware ADS-B
Tue 07:47:51 AM 33.9928 -96.4113 35° Northeast 428 493 27,100 1,099 Climbing FlightAware ADS-B
Tue 07:48:28 AM 34.0529 -96.3592 36° Northeast 432 497 27,800 1,114 Climbing FlightAware ADS-B
Tue 07:49:01 AM 34.1036 -96.3148 35° Northeast 434 499 28,400 1,091 Climbing FlightAware ADS-B
Tue 07:49:34 AM 34.1263 -96.2951 36° Northeast 437 503 29,000 1,190 Climbing FlightAware ADS-B
Tue 07:50:57 AM 34.2962 -96.1471 35° Northeast 434 499 30,700 1,043 Climbing FlightAware ADS-B
Tue 07:51:29 AM 34.3311 -96.1144 35° Northeast 435 501 31,000 1,097 Climbing Fort Worth Center
Tue 07:52:30 AM 34.4475 -96.0136 36° Northeast 435 501 32,400 1,220 Climbing Fort Worth Center
Tue 07:53:32 AM 34.5439 -95.9278 36° Northeast 435 501 33,500 1,220 Climbing Fort Worth Center
Tue 07:54:33 AM 34.6439 -95.8400 36° Northeast 436 502 34,900 1,268 Climbing Fort Worth Center
Tue 07:55:35 AM 34.7367 -95.7567 36° Northeast 424 488 36,100 927 Climbing Fort Worth Center
Tue 07:56:36 AM 34.8319 -95.6736 36° Northeast 423 487 36,800 443 Climbing Fort Worth Center
Tue 07:57:37 AM 34.9269 -95.5886 36° Northeast 421 484 37,000 98 Climbing Fort Worth Center
Tue 07:58:39 AM 35.0208 -95.5042 36° Northeast 419 482 37,000  Level Fort Worth Center
Tue 07:59:40 AM 35.1144 -95.4206 36° Northeast 418 481 37,000  Level Fort Worth Center
Tue 08:00:42 AM 35.2081 -95.3369 36° Northeast 418 481 37,000  Level Fort Worth Center
Tue 08:01:43 AM 35.3019 -95.2517 37° Northeast 418 481 37,000  Level Fort Worth Center
Tue 08:02:45 AM 35.4150 -95.1494 36° Northeast 419 482 37,000  Level Fort Worth Center
Tue 08:03:46 AM 35.5086 -95.0639 37° Northeast 419 482 37,000  Level Fort Worth Center
Tue 08:04:48 AM 35.6028 -94.9800 36° Northeast 419 482 37,000  Level Fort Worth Center
Tue 08:05:49 AM 35.6956 -94.8939 37° Northeast 419 482 37,000  Level Fort Worth Center
Tue 08:06:27 AM 35.7497 -94.8433 37° Northeast 418 481 37,000  Level Kansas City Center
Tue 08:07:28 AM 35.8431 -94.7583 36° Northeast 418 481 37,000  Level Kansas City Center
Tue 08:08:29 AM 35.9358 -94.6728 37° Northeast 418 481 37,000  Level Kansas City Center
Tue 08:09:29 AM 36.0294 -94.5861 37° Northeast 418 481 37,000  Level Kansas City Center
Tue 08:10:33 AM 36.1225 -94.5003 37° Northeast 418 481 37,000  Level Kansas City Center
Tue 08:11:34 AM 36.2342 -94.3958 37° Northeast 418 481 37,000  Level Kansas City Center
Tue 08:12:35 AM 36.3281 -94.3086 37° Northeast 418 481 37,000  Level Kansas City Center
Tue 08:13:36 AM 36.4231 -94.2203 37° Northeast 420 483 37,000  Level Kansas City Center
Tue 08:14:39 AM 36.5175 -94.1325 37° Northeast 421 484 37,000  Level Kansas City Center
Tue 08:15:40 AM 36.6139 -94.0439 36° Northeast 422 486 37,000  Level Kansas City Center
Tue 08:16:41 AM 36.7081 -93.9550 37° Northeast 424 488 37,000  Level Kansas City Center
Tue 08:17:42 AM 36.8019 -93.8653 37° Northeast 424 488 37,000  Level Kansas City Center
Tue 08:18:43 AM 36.9053 -93.7664 37° Northeast 423 487 37,000  Level Kansas City Center
Tue 08:19:47 AM 36.9972 -93.6742 39° Northeast 422 486 37,000  Level Kansas City Center
Tue 08:20:48 AM 37.0939 -93.5850 36° Northeast 423 487 37,000  Level Kansas City Center
Tue 08:21:49 AM 37.1889 -93.4931 38° Northeast 427 491 37,000  Level Kansas City Center
Tue 08:22:50 AM 37.2856 -93.4042 36° Northeast 427 491 37,000  Level Kansas City Center
Tue 08:23:52 AM 37.3797 -93.3136 37° Northeast 427 491 37,000  Level Kansas City Center
Tue 08:24:53 AM 37.4925 -93.2078 37° Northeast 424 488 37,000  Level Kansas City Center
Tue 08:25:57 AM 37.5889 -93.1194 36° Northeast 424 488 37,000  Level Kansas City Center
Tue 08:26:58 AM 37.6856 -93.0311 36° Northeast 425 489 37,000  Level Kansas City Center
Tue 08:32:54 AM 38.2475 -92.4558 44° Northeast 431 496 37,000  Level FlightAware ADS-B
Tue 08:35:09 AM 38.4278 -92.2318 44° Northeast 434 499 37,000  Level FlightAware ADS-B
Tue 08:35:40 AM 38.4783 -92.1687 45° Northeast 435 501 37,000  Level FlightAware ADS-B
Tue 08:36:11 AM 38.5287 -92.1057 45° Northeast 435 501 37,000  Level FlightAware ADS-B
Tue 08:36:41 AM 38.5705 -92.0534 45° Northeast 434 499 37,000  Level FlightAware ADS-B
Tue 08:37:27 AM 38.6374 -91.9691 45° Northeast 434 499 37,000  Level FlightAware ADS-B
Tue 08:38:10 AM 38.6957 -91.8959 45° Northeast 432 497 37,000  Level FlightAware ADS-B
Tue 08:39:18 AM 38.7842 -91.7825 45° Northeast 431 496 37,000  Level Kansas City Center
Tue 08:40:22 AM 38.8647 -91.6817 44° Northeast 431 496 37,000  Level Kansas City Center
Tue 08:41:24 AM 38.9483 -91.5750 45° Northeast 428 493 37,000  Level Kansas City Center
Tue 08:42:26 AM 39.0500 -91.4458 45° Northeast 428 493 37,000  Level Kansas City Center
Tue 08:43:28 AM 39.1347 -91.3381 45° Northeast 427 491 37,000  Level Kansas City Center
Tue 08:44:29 AM 39.2192 -91.2283 45° Northeast 428 493 37,000  Level Kansas City Center
Tue 08:45:29 AM 39.3050 -91.1181 45° Northeast 430 495 37,000  Level Kansas City Center
Tue 08:46:34 AM 39.3908 -91.0075 45° Northeast 430 495 37,000  Level Kansas City Center
Tue 08:49:58 AM 39.6934 -90.6109 46° Northeast 430 495 37,000  Level FlightAware ADS-B
Tue 08:50:41 AM 39.7461 -90.5456 46° Northeast 430 495 37,000  Level Kansas City Center
Tue 08:56:49 AM 40.2930 -89.8834 41° Northeast 440 506 37,000 -488 Level FlightAware ADS-B
Tue 08:59:30 AM 40.5445 -89.5956 42° Northeast 445 512 32,700 -2,036 Descending FlightAware ADS-B
Tue 09:01:29 AM 40.7225 -89.3860 42° Northeast 419 482 27,500 -2,787 Descending FlightAware ADS-B
Tue 09:02:33 AM 40.5445 -89.5956 42° Northeast 418 481 24,200 -2,508 Descending FlightAware ADS-B
Tue 09:05:45 AM 41.0861 -88.9548 42° Northeast 389 448 16,800 -2,286 Descending FlightAware ADS-B
Tue 09:06:24 AM 41.1390 -88.8911 42° Northeast 379 436 15,400 -1,692 Descending FlightAware ADS-B
Tue 09:07:03 AM 41.1579 -88.8684 42° Northeast 379 436 14,600 -1,562 Descending FlightAware ADS-B
Tue 09:07:37 AM 41.2281 -88.7841 42° Northeast 371 427 13,500 -1,397 Descending FlightAware ADS-B
Tue 09:08:16 AM 41.2813 -88.7200 42° Northeast 372 428 12,900 -1,378 Descending FlightAware ADS-B
Tue 09:08:51 AM 41.3153 -88.6791 43° Northeast 366 421 11,800 -1,481 Descending FlightAware ADS-B
Tue 09:09:37 AM 41.3844 -88.5953 42° Northeast 373 429 10,900 -651 Descending FlightAware ADS-B
Tue 09:10:14 AM 41.4073 -88.5682 42° Northeast 373 429 10,900  Level FlightAware ADS-B
Tue 09:11:21 AM 41.5162 -88.4389 42° Northeast 368 423 10,900  Level FlightAware ADS-B
Tue 09:11:52 AM 41.5564 -88.3910 42° Northeast 368 423 10,900  Level FlightAware ADS-B
Tue 09:12:24 AM 41.5974 -88.3421 42° Northeast 368 423 10,900  Level FlightAware ADS-B
Tue 09:12:57 AM 41.6378 -88.2939 42° Northeast 368 423 10,900  Level FlightAware ADS-B
Tue 09:13:30 AM 41.6797 -88.2439 42° Northeast 368 423 10,900 -140 Level FlightAware ADS-B
Tue 09:14:23 AM 41.7446 -88.1664 42° Northeast 346 398 10,700 -434 Descending FlightAware ADS-B
Tue 09:14:53 AM 41.7802 -88.1237 42° Northeast 325 374 10,300 -938 Descending FlightAware ADS-B
Tue 09:15:27 AM 41.8168 -88.0799 43° Northeast 309 356 9,700 -1,200 Descending FlightAware ADS-B
Tue 09:15:48 AM 41.8365 -88.0544 45° Northeast 308 354 9,200 -1,538 Descending FlightAware ADS-B
Tue 09:16:06 AM 41.8562 -88.0277 46° Northeast 306 352 8,700 -1,692 Descending FlightAware ADS-B
Tue 09:16:27 AM 41.8772 -87.9977 53° Northeast 308 354 8,100 -1,610 Descending FlightAware ADS-B
Tue 09:16:47 AM 41.8856 -87.9595 88° East 313 360 7,600 -1,350 Descending FlightAware ADS-B
Tue 09:17:07 AM 41.8853 -87.9240 91° East 307 353 7,200 -1,000 Descending FlightAware ADS-B
Tue 09:17:29 AM 41.8847 -87.8832 91° East 296 341 6,900 -419 Descending FlightAware ADS-B
Tue 09:17:50 AM 41.8845 -87.8456 90° East 267 307 6,900 -933 Level FlightAware ADS-B
Tue 09:18:14 AM 41.8845 -87.8076 90° East 257 296 6,200 -1,412 Descending FlightAware ADS-B
Tue 09:18:41 AM 41.8844 -87.7640 91° East 253 291 5,700 -1,200 Descending FlightAware ADS-B
Tue 09:18:59 AM 41.8842 -87.7351 90° East 247 284 5,300 -1,459 Descending FlightAware ADS-B
Tue 09:19:18 AM 41.8843 -87.7085 88° East 244 281 4,800 -1,610 Descending FlightAware ADS-B
Tue 09:19:40 AM 41.8945 -87.6770 54° Northeast 247 284 4,200 -1,333 Descending FlightAware ADS-B
Tue 09:19:54 AM 41.9076 -87.6654 25° Northeast 243 280 4,000 -857 Descending FlightAware ADS-B
Tue 09:20:01 AM 41.9152 -87.6628 12° North 242 278 3,900 -231 Descending FlightAware ADS-B
Tue 09:20:20 AM 41.9336 -87.6625 350° North 238 274 3,900 -182 Level FlightAware ADS-B
Tue 09:20:34 AM 41.9469 -87.6698 320° Northwest 231 266 3,800 -571 Descending FlightAware ADS-B
Tue 09:20:41 AM 41.9545 -87.6802 308° West 228 262 3,700 -1,200 Descending FlightAware ADS-B
Tue 09:20:44 AM 41.9567 -87.6851 298° West 224 258 3,600 -1,263 Descending FlightAware ADS-B
Tue 09:21:00 AM 41.9624 -87.7037 288° West 218 251 3,300 -1,143 Descending FlightAware ADS-B
Tue 09:21:05 AM 41.9637 -87.7109 282° West 216 249 3,200 -1,143 Descending FlightAware ADS-B
Tue 09:21:21 AM 41.9651 -87.7285 273° West 209 241 2,900 -1,200 Descending FlightAware ADS-B
Tue 09:21:40 AM 41.9657 -87.7545 271° West 192 221 2,500 -1,029 Descending FlightAware ADS-B
Tue 09:21:56 AM 41.9659 -87.7749 270° West 180 207 2,300 -811 Descending FlightAware ADS-B
Tue 09:22:17 AM 41.9659 -87.7961 270° West 164 189 2,000 -837 Descending FlightAware ADS-B
Tue 09:22:39 AM 41.9659 -87.8175 270° West 141 162 1,700 -857 Descending FlightAware ADS-B
Tue 09:22:59 AM 41.9658 -87.8345 270° West 137 158 1,400 -900 Descending FlightAware ADS-B
Tue 09:23:19 AM 41.9658 -87.8484 270° West 137 158 1,100 -714 Descending FlightAware ADS-B
Tue 09:23:41 AM 41.9658 -87.8689 270° West 140 161 900 -714 Descending FlightAware ADS-B
Tue 09:24:01 AM 41.9658 -87.8878 270° West 138 159 600 -900 Descending FlightAware ADS-B

Login

Don't have an account? Register now (free) for customized features, flight alerts, and more!